sensor_id;sensor_type;location;lat;lon;timestamp;pressure;altitude;pressure_sealevel;temperature;humidity
7990;BME280;4040;42.848;23.034;2023-04-30T00:01:38;94609.53;;;8.78;100.00
7990;BME280;4040;42.848;23.034;2023-04-30T00:07:27;94598.84;;;8.71;100.00
7990;BME280;4040;42.848;23.034;2023-04-30T00:13:17;94606.91;;;8.71;100.00
7990;BME280;4040;42.848;23.034;2023-04-30T00:19:06;94597.81;;;8.51;100.00
7990;BME280;4040;42.848;23.034;2023-04-30T00:24:55;94586.75;;;8.38;100.00
7990;BME280;4040;42.848;23.034;2023-04-30T00:30:45;94601.31;;;8.41;100.00
7990;BME280;4040;42.848;23.034;2023-04-30T00:36:34;94597.50;;;8.35;100.00
7990;BME280;4040;42.848;23.034;2023-04-30T00:42:23;94602.16;;;8.31;100.00
7990;BME280;4040;42.848;23.034;2023-04-30T00:48:13;94599.88;;;8.15;100.00
7990;BME280;4040;42.848;23.034;2023-04-30T00:54:02;94594.59;;;7.98;100.00
7990;BME280;4040;42.848;23.034;2023-04-30T00:59:52;94590.72;;;8.06;100.00
7990;BME280;4040;42.848;23.034;2023-04-30T01:09:55;94587.41;;;7.74;100.00
7990;BME280;4040;42.848;23.034;2023-04-30T01:15:49;94594.72;;;7.56;100.00
7990;BME280;4040;42.848;23.034;2023-04-30T01:21:42;94598.25;;;7.25;100.00
7990;BME280;4040;42.848;23.034;2023-04-30T01:33:52;94597.06;;;7.40;100.00
7990;BME280;4040;42.848;23.034;2023-04-30T01:39:57;94560.34;;;7.30;100.00
7990;BME280;4040;42.848;23.034;2023-04-30T01:45:56;94587.09;;;7.51;100.00
7990;BME280;4040;42.848;23.034;2023-04-30T01:51:47;94570.31;;;7.26;100.00
7990;BME280;4040;42.848;23.034;2023-04-30T01:57:44;94594.03;;;7.17;100.00
7990;BME280;4040;42.848;23.034;2023-04-30T02:03:36;94587.16;;;7.13;100.00
7990;BME280;4040;42.848;23.034;2023-04-30T02:09:27;94588.69;;;7.10;100.00
7990;BME280;4040;42.848;23.034;2023-04-30T02:15:15;94593.66;;;7.01;100.00
7990;BME280;4040;42.848;23.034;2023-04-30T02:21:04;94584.88;;;6.94;100.00
7990;BME280;4040;42.848;23.034;2023-04-30T02:26:54;94591.38;;;6.96;100.00
7990;BME280;4040;42.848;23.034;2023-04-30T02:32:42;94594.44;;;6.84;100.00
7990;BME280;4040;42.848;23.034;2023-04-30T02:38:31;94594.03;;;6.65;100.00
7990;BME280;4040;42.848;23.034;2023-04-30T02:44:21;94593.28;;;6.64;100.00
7990;BME280;4040;42.848;23.034;2023-04-30T02:50:10;94600.13;;;6.55;100.00
7990;BME280;4040;42.848;23.034;2023-04-30T02:55:59;94603.97;;;6.57;100.00
7990;BME280;4040;42.848;23.034;2023-04-30T03:01:49;94603.16;;;6.32;100.00
7990;BME280;4040;42.848;23.034;2023-04-30T03:07:38;94605.41;;;6.16;100.00
7990;BME280;4040;42.848;23.034;2023-04-30T03:13:27;94599.94;;;5.85;100.00
7990;BME280;4040;42.848;23.034;2023-04-30T03:19:17;94618.28;;;5.93;100.00
7990;BME280;4040;42.848;23.034;2023-04-30T03:25:11;94613.38;;;6.06;100.00
7990;BME280;4040;42.848;23.034;2023-04-30T03:31:00;94617.63;;;6.10;100.00
7990;BME280;4040;42.848;23.034;2023-04-30T03:36:52;94625.25;;;6.15;100.00
7990;BME280;4040;42.848;23.034;2023-04-30T03:42:41;94635.94;;;6.15;100.00
7990;BME280;4040;42.848;23.034;2023-04-30T03:48:30;94643.28;;;6.32;100.00
7990;BME280;4040;42.848;23.034;2023-04-30T03:54:20;94637.59;;;6.72;100.00
7990;BME280;4040;42.848;23.034;2023-04-30T04:00:10;94644.53;;;6.87;100.00
7990;BME280;4040;42.848;23.034;2023-04-30T04:05:59;94629.59;;;7.14;100.00
7990;BME280;4040;42.848;23.034;2023-04-30T04:11:49;94642.97;;;7.49;100.00
7990;BME280;4040;42.848;23.034;2023-04-30T04:17:38;94647.41;;;8.15;100.00
7990;BME280;4040;42.848;23.034;2023-04-30T04:23:26;94649.22;;;8.39;100.00
7990;BME280;4040;42.848;23.034;2023-04-30T04:29:17;94652.09;;;8.79;100.00
7990;BME280;4040;42.848;23.034;2023-04-30T04:35:06;94655.59;;;8.73;100.00
7990;BME280;4040;42.848;23.034;2023-04-30T04:40:55;94639.38;;;8.87;100.00
7990;BME280;4040;42.848;23.034;2023-04-30T04:46:45;94662.09;;;9.30;100.00
7990;BME280;4040;42.848;23.034;2023-04-30T04:52:34;94670.47;;;9.39;100.00
7990;BME280;4040;42.848;23.034;2023-04-30T04:58:23;94670.28;;;9.60;100.00
7990;BME280;4040;42.848;23.034;2023-04-30T05:04:13;94665.50;;;10.18;100.00
7990;BME280;4040;42.848;23.034;2023-04-30T05:14:03;94662.69;;;10.28;100.00
7990;BME280;4040;42.848;23.034;2023-04-30T05:19:53;94674.91;;;10.96;100.00
7990;BME280;4040;42.848;23.034;2023-04-30T05:25:42;94675.00;;;11.42;100.00
7990;BME280;4040;42.848;23.034;2023-04-30T05:31:32;94672.66;;;11.90;100.00
7990;BME280;4040;42.848;23.034;2023-04-30T05:37:22;94677.56;;;12.57;100.00
7990;BME280;4040;42.848;23.034;2023-04-30T05:43:10;94678.22;;;13.35;100.00
7990;BME280;4040;42.848;23.034;2023-04-30T05:48:59;94683.44;;;13.42;100.00
7990;BME280;4040;42.848;23.034;2023-04-30T05:54:49;94678.91;;;14.32;100.00
7990;BME280;4040;42.848;23.034;2023-04-30T06:00:38;94676.66;;;18.25;67.29
7990;BME280;4040;42.848;23.034;2023-04-30T06:06:26;94679.03;;;19.96;55.24
7990;BME280;4040;42.848;23.034;2023-04-30T06:16:18;94667.63;;;21.05;49.60
7990;BME280;4040;42.848;23.034;2023-04-30T06:22:07;94679.03;;;23.36;43.54
7990;BME280;4040;42.848;23.034;2023-04-30T06:27:56;94681.44;;;22.23;45.33
7990;BME280;4040;42.848;23.034;2023-04-30T06:33:47;94677.72;;;24.72;41.52
7990;BME280;4040;42.848;23.034;2023-04-30T06:39:36;94685.06;;;23.71;42.09
7990;BME280;4040;42.848;23.034;2023-04-30T06:45:24;94686.63;;;20.48;49.11
7990;BME280;4040;42.848;23.034;2023-04-30T06:51:16;94671.88;;;17.81;57.64
7990;BME280;4040;42.848;23.034;2023-04-30T06:57:05;94689.94;;;17.26;65.75
7990;BME280;4040;42.848;23.034;2023-04-30T07:02:54;94692.44;;;16.90;69.60
7990;BME280;4040;42.848;23.034;2023-04-30T07:08:44;94694.44;;;16.34;76.64
7990;BME280;4040;42.848;23.034;2023-04-30T07:18:44;94688.69;;;15.86;79.11
7990;BME280;4040;42.848;23.034;2023-04-30T07:24:36;94698.00;;;15.97;76.40
7990;BME280;4040;42.848;23.034;2023-04-30T07:30:24;94696.47;;;16.43;76.72
7990;BME280;4040;42.848;23.034;2023-04-30T07:36:13;94697.38;;;16.27;72.85
7990;BME280;4040;42.848;23.034;2023-04-30T07:42:04;94705.59;;;17.13;69.68
7990;BME280;4040;42.848;23.034;2023-04-30T07:47:52;94700.94;;;18.95;62.08
7990;BME280;4040;42.848;23.034;2023-04-30T07:53:41;94707.19;;;20.67;53.75
7990;BME280;4040;42.848;23.034;2023-04-30T07:59:31;94696.44;;;21.15;52.08
7990;BME280;4040;42.848;23.034;2023-04-30T08:05:20;94688.22;;;23.84;44.99
7990;BME280;4040;42.848;23.034;2023-04-30T08:11:10;94688.19;;;25.76;40.31
7990;BME280;4040;42.848;23.034;2023-04-30T08:21:22;94692.72;;;28.41;34.96
7990;BME280;4040;42.848;23.034;2023-04-30T08:27:10;94687.78;;;27.75;36.22
7990;BME280;4040;42.848;23.034;2023-04-30T08:33:00;94672.34;;;27.85;34.13
7990;BME280;4040;42.848;23.034;2023-04-30T08:38:50;94665.38;;;32.56;28.80
7990;BME280;4040;42.848;23.034;2023-04-30T08:44:39;94662.28;;;31.58;28.42
7990;BME280;4040;42.848;23.034;2023-04-30T08:50:30;94662.50;;;31.80;28.18
7990;BME280;4040;42.848;23.034;2023-04-30T08:56:20;94665.13;;;26.06;34.71
7990;BME280;4040;42.848;23.034;2023-04-30T09:02:09;94656.88;;;26.85;34.41
7990;BME280;4040;42.848;23.034;2023-04-30T09:07:58;94652.13;;;24.66;38.50
7990;BME280;4040;42.848;23.034;2023-04-30T09:13:49;94646.25;;;26.94;34.63
7990;BME280;4040;42.848;23.034;2023-04-30T09:24:01;94643.25;;;26.25;35.94
7990;BME280;4040;42.848;23.034;2023-04-30T09:29:51;94651.38;;;22.94;38.94
7990;BME280;4040;42.848;23.034;2023-04-30T09:35:40;94649.28;;;20.82;43.91
7990;BME280;4040;42.848;23.034;2023-04-30T09:41:29;94665.72;;;19.56;47.25
7990;BME280;4040;42.848;23.034;2023-04-30T09:47:19;94666.56;;;19.39;47.97
7990;BME280;4040;42.848;23.034;2023-04-30T09:53:09;94666.50;;;18.25;55.86
7990;BME280;4040;42.848;23.034;2023-04-30T09:59:01;94663.66;;;17.32;59.43
7990;BME280;4040;42.848;23.034;2023-04-30T10:04:55;94670.84;;;19.22;55.01
7990;BME280;4040;42.848;23.034;2023-04-30T10:10:48;94656.75;;;20.59;52.13
7990;BME280;4040;42.848;23.034;2023-04-30T10:16:43;94638.41;;;27.79;34.86
7990;BME280;4040;42.848;23.034;2023-04-30T10:26:57;94633.28;;;22.82;42.49
7990;BME280;4040;42.848;23.034;2023-04-30T10:32:52;94639.69;;;21.01;47.07
7990;BME280;4040;42.848;23.034;2023-04-30T10:38:43;94629.91;;;22.73;42.80
7990;BME280;4040;42.848;23.034;2023-04-30T10:44:35;94619.22;;;25.10;37.65
7990;BME280;4040;42.848;23.034;2023-04-30T10:50:24;94598.47;;;24.45;36.84
7990;BME280;4040;42.848;23.034;2023-04-30T10:56:28;94616.28;;;21.98;41.94
7990;BME280;4040;42.848;23.034;2023-04-30T11:02:18;94617.31;;;21.81;40.36
7990;BME280;4040;42.848;23.034;2023-04-30T11:08:10;94620.72;;;21.61;41.19
7990;BME280;4040;42.848;23.034;2023-04-30T11:14:00;94615.25;;;21.47;41.97
7990;BME280;4040;42.848;23.034;2023-04-30T11:19:51;94618.25;;;20.85;42.65
7990;BME280;4040;42.848;23.034;2023-04-30T11:30:05;94609.41;;;21.39;42.33
7990;BME280;4040;42.848;23.034;2023-04-30T11:36:00;94602.69;;;20.54;43.51
7990;BME280;4040;42.848;23.034;2023-04-30T11:41:48;94603.88;;;20.76;43.00
7990;BME280;4040;42.848;23.034;2023-04-30T11:47:42;94604.25;;;20.31;42.34
7990;BME280;4040;42.848;23.034;2023-04-30T11:53:33;94617.88;;;20.55;43.47
7990;BME280;4040;42.848;23.034;2023-04-30T11:59:21;94618.03;;;20.37;45.21
7990;BME280;4040;42.848;23.034;2023-04-30T12:05:14;94611.66;;;20.40;41.55
7990;BME280;4040;42.848;23.034;2023-04-30T12:11:05;94615.41;;;20.42;42.39
7990;BME280;4040;42.848;23.034;2023-04-30T12:17:06;94626.38;;;20.57;46.82
7990;BME280;4040;42.848;23.034;2023-04-30T12:22:55;94637.22;;;18.98;50.75
7990;BME280;4040;42.848;23.034;2023-04-30T12:33:09;94619.09;;;18.23;52.68
7990;BME280;4040;42.848;23.034;2023-04-30T12:39:16;94623.97;;;18.37;50.98
7990;BME280;4040;42.848;23.034;2023-04-30T12:45:07;94611.09;;;18.37;50.32
7990;BME280;4040;42.848;23.034;2023-04-30T12:50:59;94603.34;;;18.54;51.09
7990;BME280;4040;42.848;23.034;2023-04-30T12:56:57;94596.81;;;19.29;49.59
7990;BME280;4040;42.848;23.034;2023-04-30T13:02:46;94591.47;;;19.90;47.31
7990;BME280;4040;42.848;23.034;2023-04-30T13:08:36;94587.09;;;19.84;48.08
7990;BME280;4040;42.848;23.034;2023-04-30T13:14:25;94586.56;;;19.47;48.05
7990;BME280;4040;42.848;23.034;2023-04-30T13:20:14;94578.72;;;19.64;47.80
7990;BME280;4040;42.848;23.034;2023-04-30T13:26:04;94592.78;;;19.48;49.65
7990;BME280;4040;42.848;23.034;2023-04-30T13:36:15;94570.91;;;18.65;59.37
7990;BME280;4040;42.848;23.034;2023-04-30T13:42:06;94578.59;;;18.84;57.32
7990;BME280;4040;42.848;23.034;2023-04-30T13:47:54;94577.06;;;19.34;56.58
7990;BME280;4040;42.848;23.034;2023-04-30T13:53:43;94580.00;;;19.54;55.07
7990;BME280;4040;42.848;23.034;2023-04-30T13:59:34;94572.44;;;19.49;51.09
7990;BME280;4040;42.848;23.034;2023-04-30T14:05:22;94567.97;;;19.84;52.06
7990;BME280;4040;42.848;23.034;2023-04-30T14:11:11;94556.94;;;20.40;51.17
7990;BME280;4040;42.848;23.034;2023-04-30T14:17:01;94543.13;;;20.20;48.51
7990;BME280;4040;42.848;23.034;2023-04-30T14:22:51;94556.28;;;20.07;47.46
7990;BME280;4040;42.848;23.034;2023-04-30T14:28:39;94562.88;;;19.77;48.11
7990;BME280;4040;42.848;23.034;2023-04-30T14:38:51;94577.84;;;18.84;50.47
7990;BME280;4040;42.848;23.034;2023-04-30T14:44:40;94566.03;;;18.69;50.51
7990;BME280;4040;42.848;23.034;2023-04-30T14:50:29;94560.16;;;18.61;49.90
7990;BME280;4040;42.848;23.034;2023-04-30T14:56:19;94571.06;;;18.61;50.82
7990;BME280;4040;42.848;23.034;2023-04-30T15:02:08;94590.31;;;18.67;52.58
7990;BME280;4040;42.848;23.034;2023-04-30T15:07:57;94592.13;;;18.61;52.88
7990;BME280;4040;42.848;23.034;2023-04-30T15:13:47;94584.84;;;18.67;51.00
7990;BME280;4040;42.848;23.034;2023-04-30T15:19:36;94586.06;;;18.57;52.74
7990;BME280;4040;42.848;23.034;2023-04-30T15:25:25;94577.28;;;18.62;51.80
7990;BME280;4040;42.848;23.034;2023-04-30T15:31:15;94574.47;;;18.89;49.31
7990;BME280;4040;42.848;23.034;2023-04-30T15:41:25;94576.34;;;18.83;51.14
7990;BME280;4040;42.848;23.034;2023-04-30T15:47:15;94543.66;;;18.56;51.29
7990;BME280;4040;42.848;23.034;2023-04-30T15:53:04;94570.28;;;18.70;50.56
7990;BME280;4040;42.848;23.034;2023-04-30T15:58:53;94562.44;;;18.63;50.63
7990;BME280;4040;42.848;23.034;2023-04-30T16:04:43;94564.28;;;18.21;49.60
7990;BME280;4040;42.848;23.034;2023-04-30T16:10:32;94560.31;;;17.77;50.52
7990;BME280;4040;42.848;23.034;2023-04-30T16:16:21;94573.59;;;17.48;51.72
7990;BME280;4040;42.848;23.034;2023-04-30T16:22:11;94571.88;;;17.33;51.92
7990;BME280;4040;42.848;23.034;2023-04-30T16:28:00;94582.56;;;17.18;52.72
7990;BME280;4040;42.848;23.034;2023-04-30T16:33:48;94581.19;;;17.14;53.16
7990;BME280;4040;42.848;23.034;2023-04-30T16:44:01;94594.25;;;16.97;54.06
7990;BME280;4040;42.848;23.034;2023-04-30T16:49:50;94570.28;;;16.74;54.53
7990;BME280;4040;42.848;23.034;2023-04-30T16:55:39;94586.84;;;16.67;54.71
7990;BME280;4040;42.848;23.034;2023-04-30T17:01:29;94604.81;;;16.65;55.09
7990;BME280;4040;42.848;23.034;2023-04-30T17:07:18;94610.00;;;16.50;54.00
7990;BME280;4040;42.848;23.034;2023-04-30T17:13:06;94623.88;;;16.31;55.28
7990;BME280;4040;42.848;23.034;2023-04-30T17:18:56;94620.59;;;16.14;57.08
7990;BME280;4040;42.848;23.034;2023-04-30T17:24:45;94620.06;;;16.07;56.90
7990;BME280;4040;42.848;23.034;2023-04-30T17:30:34;94632.41;;;15.86;57.32
7990;BME280;4040;42.848;23.034;2023-04-30T17:36:24;94636.53;;;15.78;58.00
7990;BME280;4040;42.848;23.034;2023-04-30T17:46:35;94657.84;;;15.67;58.75
7990;BME280;4040;42.848;23.034;2023-04-30T17:52:26;94663.53;;;15.35;64.32
7990;BME280;4040;42.848;23.034;2023-04-30T17:58:14;94669.88;;;14.92;70.75
7990;BME280;4040;42.848;23.034;2023-04-30T18:04:06;94673.31;;;14.80;75.33
7990;BME280;4040;42.848;23.034;2023-04-30T18:09:57;94689.06;;;14.56;80.84
7990;BME280;4040;42.848;23.034;2023-04-30T18:15:45;94697.44;;;14.33;89.13
7990;BME280;4040;42.848;23.034;2023-04-30T18:21:34;94703.41;;;14.69;76.10
7990;BME280;4040;42.848;23.034;2023-04-30T18:27:24;94721.47;;;14.88;72.71
7990;BME280;4040;42.848;23.034;2023-04-30T18:33:13;94734.81;;;14.83;77.08
7990;BME280;4040;42.848;23.034;2023-04-30T18:39:02;94747.09;;;14.59;82.63
7990;BME280;4040;42.848;23.034;2023-04-30T18:49:15;94747.91;;;14.11;97.99
7990;BME280;4040;42.848;23.034;2023-04-30T18:55:05;94753.25;;;13.99;100.00
7990;BME280;4040;42.848;23.034;2023-04-30T19:00:55;94721.84;;;13.85;100.00
7990;BME280;4040;42.848;23.034;2023-04-30T19:06:45;94753.75;;;13.78;100.00
7990;BME280;4040;42.848;23.034;2023-04-30T19:12:36;94765.38;;;13.43;100.00
7990;BME280;4040;42.848;23.034;2023-04-30T19:18:24;94771.91;;;13.26;100.00
7990;BME280;4040;42.848;23.034;2023-04-30T19:24:15;94769.09;;;13.13;100.00
7990;BME280;4040;42.848;23.034;2023-04-30T19:30:04;94788.97;;;12.84;100.00
7990;BME280;4040;42.848;23.034;2023-04-30T19:35:53;94798.47;;;12.72;100.00
7990;BME280;4040;42.848;23.034;2023-04-30T19:41:45;94788.69;;;12.59;100.00
7990;BME280;4040;42.848;23.034;2023-04-30T19:51:57;94784.75;;;12.63;100.00
7990;BME280;4040;42.848;23.034;2023-04-30T19:57:47;94802.13;;;12.40;100.00
7990;BME280;4040;42.848;23.034;2023-04-30T20:03:37;94816.28;;;12.24;100.00
7990;BME280;4040;42.848;23.034;2023-04-30T20:09:27;94792.72;;;12.05;100.00
7990;BME280;4040;42.848;23.034;2023-04-30T20:15:18;94807.84;;;12.22;100.00
7990;BME280;4040;42.848;23.034;2023-04-30T20:21:06;94812.06;;;12.00;100.00
7990;BME280;4040;42.848;23.034;2023-04-30T20:26:55;94816.41;;;11.94;100.00
7990;BME280;4040;42.848;23.034;2023-04-30T20:32:46;94822.34;;;11.82;100.00
7990;BME280;4040;42.848;23.034;2023-04-30T20:38:35;94833.84;;;11.63;100.00
7990;BME280;4040;42.848;23.034;2023-04-30T20:44:27;94832.53;;;11.71;100.00
7990;BME280;4040;42.848;23.034;2023-04-30T20:54:39;94845.28;;;11.97;100.00
7990;BME280;4040;42.848;23.034;2023-04-30T21:00:28;94849.94;;;11.93;100.00
7990;BME280;4040;42.848;23.034;2023-04-30T21:06:17;94857.13;;;11.77;100.00
7990;BME280;4040;42.848;23.034;2023-04-30T21:12:08;94863.56;;;11.56;100.00
7990;BME280;4040;42.848;23.034;2023-04-30T21:17:57;94872.22;;;11.41;100.00
7990;BME280;4040;42.848;23.034;2023-04-30T21:23:46;94871.66;;;11.26;100.00
7990;BME280;4040;42.848;23.034;2023-04-30T21:29:40;94869.34;;;11.25;100.00
7990;BME280;4040;42.848;23.034;2023-04-30T21:35:29;94845.84;;;10.92;100.00
7990;BME280;4040;42.848;23.034;2023-04-30T21:41:19;94830.72;;;10.68;100.00
7990;BME280;4040;42.848;23.034;2023-04-30T21:47:11;94891.84;;;11.11;100.00
7990;BME280;4040;42.848;23.034;2023-04-30T21:57:22;94873.34;;;11.13;100.00
7990;BME280;4040;42.848;23.034;2023-04-30T22:08:33;94890.81;;;10.61;100.00
7990;BME280;4040;42.848;23.034;2023-04-30T22:14:22;94899.19;;;10.70;100.00
7990;BME280;4040;42.848;23.034;2023-04-30T22:20:11;94889.81;;;10.85;100.00
7990;BME280;4040;42.848;23.034;2023-04-30T22:26:01;94880.13;;;10.91;100.00
7990;BME280;4040;42.848;23.034;2023-04-30T22:31:52;94872.28;;;10.70;100.00
7990;BME280;4040;42.848;23.034;2023-04-30T22:37:41;94888.47;;;10.67;100.00
7990;BME280;4040;42.848;23.034;2023-04-30T22:43:33;94875.84;;;10.57;100.00
7990;BME280;4040;42.848;23.034;2023-04-30T22:49:21;94876.31;;;10.48;100.00
7990;BME280;4040;42.848;23.034;2023-04-30T22:55:10;94866.94;;;10.19;100.00
7990;BME280;4040;42.848;23.034;2023-04-30T23:01:01;94873.53;;;10.11;100.00
7990;BME280;4040;42.848;23.034;2023-04-30T23:11:11;94874.63;;;9.60;100.00
7990;BME280;4040;42.848;23.034;2023-04-30T23:17:01;94875.31;;;9.71;100.00
7990;BME280;4040;42.848;23.034;2023-04-30T23:22:50;94848.53;;;9.57;100.00
7990;BME280;4040;42.848;23.034;2023-04-30T23:28:39;94869.22;;;9.67;100.00
7990;BME280;4040;42.848;23.034;2023-04-30T23:34:29;94869.25;;;9.60;100.00
7990;BME280;4040;42.848;23.034;2023-04-30T23:40:18;94872.31;;;9.58;100.00
7990;BME280;4040;42.848;23.034;2023-04-30T23:46:07;94871.19;;;9.56;100.00
7990;BME280;4040;42.848;23.034;2023-04-30T23:51:57;94862.44;;;9.45;100.00
7990;BME280;4040;42.848;23.034;2023-04-30T23:57:46;94879.34;;;9.38;100.00
